Time;durP1;ratioP1;P1;durP2;ratioP2;P2;SDS_P1;SDS_P2;PMS_P1;PMS_P2;Temp;Humidity;BMP_temperature;BMP_pressure;BME280_temperature;BME280_humidity;BME280_pressure;Samples;Min_cycle;Max_cycle;Signal;HPM_P1;HPM_P2
2023/08/29 00:02:08;;;;;;;2.85;2.10;;;;;;;;;;5020242;28;25074;-72
2023/08/29 00:04:34;;;;;;;5.10;2.03;;;;;;;;;;5021605;28;25063;-70
2023/08/29 00:07:00;;;;;;;3.97;1.88;;;;;;;;;;5020918;28;25169;-71
2023/08/29 00:09:26;;;;;;;6.70;2.15;;;;;;;;;;5016444;28;25065;-69
2023/08/29 00:11:52;;;;;;;2.22;1.90;;;;;;;;;;5020132;28;25065;-72
2023/08/29 00:14:18;;;;;;;4.50;2.15;;;;;;;;;;5022547;28;25082;-72
2023/08/29 00:16:44;;;;;;;5.75;2.33;;;;;;;;;;5016041;28;25096;-73
2023/08/29 00:19:10;;;;;;;3.53;2.05;;;;;;;;;;5016747;28;25061;-71
2023/08/29 00:21:39;;;;;;;3.40;2.20;;;;;;;;;;5023886;28;25069;-73
2023/08/29 00:24:06;;;;;;;5.47;2.50;;;;;;;;;;5019744;28;25066;-71
2023/08/29 00:26:32;;;;;;;3.65;2.38;;;;;;;;;;5025553;28;25064;-72
2023/08/29 00:28:58;;;;;;;3.42;2.40;;;;;;;;;;5010382;28;25165;-71
2023/08/29 00:31:24;;;;;;;2.58;2.38;;;;;;;;;;5020287;28;25013;-69
2023/08/29 00:33:51;;;;;;;5.75;2.60;;;;;;;;;;5017798;28;25060;-74
2023/08/29 00:36:17;;;;;;;7.57;3.03;;;;;;;;;;5018581;28;25056;-73
2023/08/29 00:38:43;;;;;;;4.13;2.88;;;;;;;;;;5018574;28;25132;-71
2023/08/29 00:41:10;;;;;;;3.35;2.10;;;;;;;;;;5020758;28;25063;-72
2023/08/29 00:43:37;;;;;;;6.05;2.38;;;;;;;;;;5022118;28;25084;-72
2023/08/29 00:46:04;;;;;;;3.63;2.67;;;;;;;;;;5022492;28;25137;-72
2023/08/29 00:48:30;;;;;;;3.33;2.40;;;;;;;;;;5021217;28;25082;-71
2023/08/29 00:50:56;;;;;;;5.25;2.70;;;;;;;;;;5025603;28;25087;-71
2023/08/29 00:53:23;;;;;;;5.53;2.70;;;;;;;;;;5023090;28;25143;-70
2023/08/29 00:55:49;;;;;;;5.88;2.83;;;;;;;;;;5026054;28;25048;-69
2023/08/29 00:58:15;;;;;;;6.53;3.25;;;;;;;;;;5022897;28;25058;-72
2023/08/29 01:00:42;;;;;;;3.17;2.85;;;;;;;;;;5026266;28;25058;-71
2023/08/29 01:03:08;;;;;;;4.32;2.72;;;;;;;;;;5029045;28;25088;-72
2023/08/29 01:05:34;;;;;;;3.35;2.80;;;;;;;;;;5026212;28;25079;-71
2023/08/29 01:08:00;;;;;;;2.85;2.42;;;;;;;;;;5016768;28;25149;-70
2023/08/29 01:10:46;;;;;;;6.97;2.70;;;;;;;;;;5026794;28;25153;-71
2023/08/29 01:13:23;;;;;;;3.50;2.53;;;;;;;;;;5001301;28;25054;-71
2023/08/29 01:15:51;;;;;;;3.88;2.45;;;;;;;;;;5022864;28;25093;-70
2023/08/29 01:18:18;;;;;;;3.45;2.35;;;;;;;;;;5015797;28;25119;-70
2023/08/29 01:20:45;;;;;;;7.18;2.80;;;;;;;;;;5018587;28;25048;-72
2023/08/29 01:23:11;;;;;;;7.43;3.25;;;;;;;;;;5024724;28;25074;-72
2023/08/29 01:25:47;;;;;;;5.05;3.22;;;;;;;;;;5024233;28;25077;-73
2023/08/29 01:28:13;;;;;;;7.28;3.42;;;;;;;;;;5020819;28;25171;-71
2023/08/29 01:30:39;;;;;;;7.65;3.08;;;;;;;;;;5021536;28;25160;-72
2023/08/29 01:33:07;;;;;;;7.95;3.15;;;;;;;;;;5021354;28;25063;-74
2023/08/29 01:35:34;;;;;;;3.20;2.90;;;;;;;;;;5015370;28;25150;-72
2023/08/29 01:38:00;;;;;;;5.82;3.10;;;;;;;;;;5025237;28;25055;-70
2023/08/29 01:40:26;;;;;;;6.10;2.78;;;;;;;;;;5034363;28;25065;-72
2023/08/29 01:42:52;;;;;;;5.93;3.03;;;;;;;;;;5030044;28;25056;-69
2023/08/29 01:45:18;;;;;;;3.67;3.38;;;;;;;;;;5026711;28;25124;-70
2023/08/29 01:47:44;;;;;;;6.18;3.38;;;;;;;;;;5027243;28;25070;-72
2023/08/29 01:50:12;;;;;;;4.25;3.38;;;;;;;;;;5028985;28;25056;-71
2023/08/29 01:52:38;;;;;;;4.43;3.83;;;;;;;;;;5032080;28;25152;-70
2023/08/29 01:55:04;;;;;;;6.72;3.90;;;;;;;;;;5029466;28;25082;-72
2023/08/29 01:57:34;;;;;;;6.20;4.20;;;;;;;;;;5027571;28;25067;-74
2023/08/29 02:00:00;;;;;;;6.50;4.50;;;;;;;;;;5020876;28;25050;-71
2023/08/29 02:02:26;;;;;;;4.25;3.70;;;;;;;;;;5016525;28;25068;-71
2023/08/29 02:04:52;;;;;;;6.32;3.80;;;;;;;;;;5021766;28;25093;-72
2023/08/29 02:07:18;;;;;;;4.15;3.03;;;;;;;;;;5017209;28;25076;-70
2023/08/29 02:09:44;;;;;;;7.03;3.97;;;;;;;;;;5017499;28;25056;-70
2023/08/29 02:12:10;;;;;;;7.05;4.25;;;;;;;;;;5011076;28;25060;-71
2023/08/29 02:14:36;;;;;;;6.22;4.15;;;;;;;;;;5009190;28;25076;-69
2023/08/29 02:17:03;;;;;;;9.18;3.50;;;;;;;;;;5016297;28;25072;-71
2023/08/29 02:19:29;;;;;;;5.43;3.70;;;;;;;;;;5013712;28;25146;-73
2023/08/29 02:21:55;;;;;;;6.57;4.20;;;;;;;;;;5018399;28;25077;-70
2023/08/29 02:24:21;;;;;;;4.40;3.33;;;;;;;;;;5017802;28;25066;-69
2023/08/29 02:26:47;;;;;;;5.45;4.07;;;;;;;;;;5021156;28;25139;-73
2023/08/29 02:29:13;;;;;;;6.68;4.43;;;;;;;;;;5009616;28;25128;-71
2023/08/29 02:31:39;;;;;;;6.72;3.83;;;;;;;;;;5017203;28;25071;-71
2023/08/29 02:34:05;;;;;;;7.40;3.90;;;;;;;;;;5019774;28;25082;-72
2023/08/29 02:36:31;;;;;;;4.90;4.20;;;;;;;;;;5022639;28;25111;-68
2023/08/29 02:38:57;;;;;;;6.32;3.92;;;;;;;;;;5015586;28;25059;-69
2023/08/29 02:41:23;;;;;;;5.63;3.30;;;;;;;;;;5016759;28;25075;-70
2023/08/29 02:43:49;;;;;;;5.93;3.83;;;;;;;;;;5010570;28;25083;-70
2023/08/29 02:46:15;;;;;;;6.43;4.18;;;;;;;;;;5021478;28;25077;-69
2023/08/29 02:48:41;;;;;;;5.75;3.78;;;;;;;;;;5017481;28;25119;-68
2023/08/29 02:51:07;;;;;;;4.93;3.45;;;;;;;;;;5013929;28;25070;-69
2023/08/29 02:53:33;;;;;;;4.68;3.55;;;;;;;;;;5021009;28;25070;-69
2023/08/29 02:55:59;;;;;;;6.13;4.28;;;;;;;;;;5022801;28;25077;-70
2023/08/29 02:58:25;;;;;;;6.82;4.03;;;;;;;;;;5022517;28;25087;-70
2023/08/29 03:00:56;;;;;;;5.38;3.53;;;;;;;;;;5034886;28;25060;-70
2023/08/29 03:03:22;;;;;;;5.22;3.72;;;;;;;;;;5018799;28;25053;-70
2023/08/29 03:05:55;;;;;;;3.97;3.53;;;;;;;;;;5025162;28;25066;-68
2023/08/29 03:08:21;;;;;;;4.47;4.05;;;;;;;;;;5017268;28;25088;-68
2023/08/29 03:10:47;;;;;;;4.88;3.72;;;;;;;;;;5024460;28;25079;-69
2023/08/29 03:13:13;;;;;;;6.88;4.30;;;;;;;;;;5017554;28;25076;-70
2023/08/29 03:15:40;;;;;;;5.47;4.45;;;;;;;;;;5015097;28;25069;-73
2023/08/29 03:18:06;;;;;;;7.40;4.53;;;;;;;;;;5013058;28;25067;-70
2023/08/29 03:20:32;;;;;;;6.00;3.72;;;;;;;;;;5009820;28;25099;-70
2023/08/29 03:22:59;;;;;;;7.97;4.15;;;;;;;;;;5020979;28;25063;-69
2023/08/29 03:25:24;;;;;;;5.63;4.00;;;;;;;;;;5016259;28;25178;-72
2023/08/29 03:27:50;;;;;;;4.50;3.30;;;;;;;;;;5030142;28;25089;-69
2023/08/29 03:30:17;;;;;;;7.82;4.40;;;;;;;;;;5017873;28;25060;-70
2023/08/29 03:32:43;;;;;;;4.38;3.00;;;;;;;;;;5013778;28;25134;-69
2023/08/29 03:35:09;;;;;;;3.63;3.33;;;;;;;;;;5016483;28;25291;-71
2023/08/29 03:37:34;;;;;;;7.25;4.38;;;;;;;;;;5025590;28;25086;-71
2023/08/29 03:40:00;;;;;;;5.63;3.80;;;;;;;;;;5025280;28;25153;-69
2023/08/29 03:42:26;;;;;;;6.13;4.38;;;;;;;;;;5013119;28;25106;-71
2023/08/29 03:44:52;;;;;;;5.85;4.32;;;;;;;;;;5024439;28;25050;-70
2023/08/29 03:47:18;;;;;;;5.97;4.45;;;;;;;;;;5014562;28;25075;-69
2023/08/29 03:49:44;;;;;;;6.50;4.47;;;;;;;;;;5018037;28;25151;-69
2023/08/29 03:52:11;;;;;;;5.20;3.95;;;;;;;;;;5014410;28;25079;-70
2023/08/29 03:54:37;;;;;;;6.68;4.05;;;;;;;;;;5021228;28;25154;-68
2023/08/29 03:57:03;;;;;;;5.10;3.65;;;;;;;;;;5019164;28;25050;-69
2023/08/29 03:59:29;;;;;;;4.90;3.78;;;;;;;;;;5018196;28;25050;-70
2023/08/29 04:01:55;;;;;;;5.15;4.13;;;;;;;;;;5016424;28;25101;-70
2023/08/29 04:04:22;;;;;;;6.03;4.20;;;;;;;;;;5022464;28;25085;-72
2023/08/29 04:06:48;;;;;;;5.80;4.07;;;;;;;;;;5011772;28;25071;-71
2023/08/29 04:09:14;;;;;;;6.75;4.30;;;;;;;;;;5013172;28;25056;-72
2023/08/29 04:11:40;;;;;;;4.95;4.13;;;;;;;;;;5017547;28;25163;-70
2023/08/29 04:14:06;;;;;;;5.55;4.03;;;;;;;;;;5015765;28;25069;-71
2023/08/29 04:16:32;;;;;;;5.18;4.15;;;;;;;;;;5017567;28;25119;-69
2023/08/29 04:18:58;;;;;;;10.57;4.50;;;;;;;;;;5015543;28;25137;-70
2023/08/29 04:21:24;;;;;;;6.25;4.65;;;;;;;;;;5022708;28;25063;-70
2023/08/29 04:23:50;;;;;;;6.68;4.10;;;;;;;;;;5018913;28;25044;-68
2023/08/29 04:26:16;;;;;;;7.30;4.63;;;;;;;;;;5028104;28;25058;-68
2023/08/29 04:28:42;;;;;;;5.43;4.65;;;;;;;;;;5021159;28;25045;-71
2023/08/29 04:31:09;;;;;;;8.45;5.13;;;;;;;;;;5014653;28;25081;-69
2023/08/29 04:33:35;;;;;;;7.47;4.50;;;;;;;;;;5018643;28;25132;-71
2023/08/29 04:36:01;;;;;;;7.75;4.60;;;;;;;;;;5017521;28;25157;-72
2023/08/29 04:38:28;;;;;;;7.55;5.00;;;;;;;;;;5026830;28;25145;-70
2023/08/29 04:40:54;;;;;;;6.72;4.57;;;;;;;;;;5023514;28;25089;-71
2023/08/29 04:43:20;;;;;;;7.25;4.75;;;;;;;;;;5021741;28;25106;-71
2023/08/29 04:45:46;;;;;;;7.10;4.57;;;;;;;;;;5025057;28;25097;-71
2023/08/29 04:48:13;;;;;;;6.20;4.88;;;;;;;;;;5023035;28;25124;-71
2023/08/29 04:50:39;;;;;;;8.57;5.18;;;;;;;;;;5027319;28;25064;-70
2023/08/29 04:53:05;;;;;;;7.80;4.82;;;;;;;;;;5025779;28;25141;-71
2023/08/29 04:55:31;;;;;;;7.88;5.55;;;;;;;;;;5028000;28;25105;-71
2023/08/29 04:57:58;;;;;;;9.57;4.95;;;;;;;;;;5025355;28;25096;-70
2023/08/29 05:00:24;;;;;;;7.40;4.97;;;;;;;;;;5027443;28;25058;-72
2023/08/29 05:02:50;;;;;;;8.07;4.50;;;;;;;;;;5032286;28;25139;-74
2023/08/29 05:05:16;;;;;;;10.13;5.00;;;;;;;;;;5040094;28;25045;-72
2023/08/29 05:07:42;;;;;;;5.93;4.57;;;;;;;;;;5029493;28;25124;-72
2023/08/29 05:10:09;;;;;;;7.32;4.88;;;;;;;;;;5024646;28;25081;-72
2023/08/29 05:12:35;;;;;;;7.10;4.63;;;;;;;;;;5024945;28;25071;-72
2023/08/29 05:15:01;;;;;;;8.10;4.97;;;;;;;;;;5023451;28;25082;-72
2023/08/29 05:17:27;;;;;;;9.30;5.50;;;;;;;;;;5015640;28;25064;-71
2023/08/29 05:19:53;;;;;;;10.13;5.82;;;;;;;;;;5033865;28;25091;-71
2023/08/29 05:22:19;;;;;;;11.02;5.75;;;;;;;;;;5024752;28;25075;-73
2023/08/29 05:24:45;;;;;;;8.20;5.63;;;;;;;;;;5027313;28;25068;-71
2023/08/29 05:27:11;;;;;;;10.18;5.63;;;;;;;;;;5020311;28;25057;-71
2023/08/29 05:29:37;;;;;;;8.15;5.75;;;;;;;;;;5025125;28;25128;-70
2023/08/29 05:32:03;;;;;;;8.20;5.22;;;;;;;;;;5019700;28;25055;-72
2023/08/29 05:34:29;;;;;;;11.68;5.85;;;;;;;;;;5022705;28;25060;-72
2023/08/29 05:36:56;;;;;;;8.27;5.95;;;;;;;;;;5022428;28;25065;-71
2023/08/29 05:39:23;;;;;;;8.35;6.45;;;;;;;;;;5018560;28;25167;-73
2023/08/29 05:41:49;;;;;;;7.80;5.85;;;;;;;;;;5024915;28;25075;-71
2023/08/29 05:44:16;;;;;;;9.20;6.70;;;;;;;;;;5030423;28;25112;-71
2023/08/29 05:46:42;;;;;;;7.65;5.88;;;;;;;;;;5031666;28;25075;-71
2023/08/29 05:49:08;;;;;;;10.13;6.85;;;;;;;;;;5030775;28;25062;-71
2023/08/29 05:51:34;;;;;;;11.30;6.68;;;;;;;;;;5030656;28;25069;-71
2023/08/29 05:54:00;;;;;;;9.95;7.20;;;;;;;;;;5026925;28;25055;-71
2023/08/29 05:56:26;;;;;;;16.63;10.43;;;;;;;;;;5030280;28;25074;-74
2023/08/29 05:58:52;;;;;;;13.48;7.93;;;;;;;;;;5030945;28;25081;-71
2023/08/29 06:01:18;;;;;;;15.43;7.70;;;;;;;;;;5033422;28;25071;-70
2023/08/29 06:03:44;;;;;;;10.30;7.32;;;;;;;;;;5027743;28;25162;-71
2023/08/29 06:06:10;;;;;;;11.02;7.40;;;;;;;;;;5019471;28;25102;-72
2023/08/29 06:08:36;;;;;;;10.30;6.97;;;;;;;;;;5026853;28;25127;-72
2023/08/29 06:11:03;;;;;;;10.85;7.55;;;;;;;;;;5029115;28;25051;-73
2023/08/29 06:13:29;;;;;;;11.82;7.28;;;;;;;;;;5027274;28;25071;-72
2023/08/29 06:15:55;;;;;;;17.73;8.18;;;;;;;;;;5027066;28;25082;-72
2023/08/29 06:18:21;;;;;;;12.23;7.55;;;;;;;;;;5025843;28;25081;-72
2023/08/29 06:20:47;;;;;;;13.73;7.32;;;;;;;;;;5032817;28;25063;-72
2023/08/29 06:23:14;;;;;;;9.98;5.88;;;;;;;;;;5024952;28;25069;-72
2023/08/29 06:25:41;;;;;;;13.32;6.97;;;;;;;;;;5026361;28;25064;-71
2023/08/29 06:28:07;;;;;;;11.95;7.78;;;;;;;;;;5024896;28;25085;-71
2023/08/29 06:30:35;;;;;;;11.02;7.07;;;;;;;;;;5029847;28;25059;-72
2023/08/29 06:33:01;;;;;;;11.15;6.97;;;;;;;;;;5026303;28;25089;-72
2023/08/29 06:35:27;;;;;;;13.70;6.30;;;;;;;;;;5027684;28;25102;-71
2023/08/29 06:37:55;;;;;;;11.13;6.35;;;;;;;;;;5029280;28;25163;-72
2023/08/29 06:40:21;;;;;;;11.95;5.47;;;;;;;;;;5027583;28;25058;-71
2023/08/29 06:42:47;;;;;;;11.63;6.28;;;;;;;;;;5018334;28;25067;-71
2023/08/29 06:45:13;;;;;;;8.93;6.15;;;;;;;;;;5026412;28;25031;-72
2023/08/29 06:47:39;;;;;;;13.30;7.22;;;;;;;;;;5031500;28;25097;-72
2023/08/29 06:50:05;;;;;;;15.48;7.10;;;;;;;;;;5035310;28;25127;-71
2023/08/29 06:52:31;;;;;;;13.63;7.00;;;;;;;;;;5025389;28;25049;-71
2023/08/29 06:54:57;;;;;;;12.25;7.30;;;;;;;;;;5020243;28;25157;-72
2023/08/29 06:57:23;;;;;;;8.90;6.40;;;;;;;;;;5027975;28;25139;-72
2023/08/29 06:59:49;;;;;;;9.00;6.90;;;;;;;;;;5024620;28;25145;-72
2023/08/29 07:02:15;;;;;;;10.00;6.55;;;;;;;;;;5038321;28;25147;-71
2023/08/29 07:04:41;;;;;;;10.73;6.30;;;;;;;;;;5026372;28;25105;-70
2023/08/29 07:07:07;;;;;;;9.00;5.68;;;;;;;;;;5025683;28;25084;-71
2023/08/29 07:09:33;;;;;;;8.48;5.78;;;;;;;;;;5021974;28;25059;-71
2023/08/29 07:11:59;;;;;;;8.63;6.60;;;;;;;;;;5026244;28;25059;-70
2023/08/29 07:14:25;;;;;;;9.20;7.07;;;;;;;;;;5035676;28;25050;-72
2023/08/29 07:16:51;;;;;;;9.43;6.10;;;;;;;;;;5028216;28;25075;-71
2023/08/29 07:19:17;;;;;;;10.85;6.13;;;;;;;;;;5022956;28;25136;-71
2023/08/29 07:21:44;;;;;;;10.25;6.82;;;;;;;;;;5029110;28;25052;-70
2023/08/29 07:24:10;;;;;;;9.35;5.93;;;;;;;;;;5035880;28;25070;-71
2023/08/29 07:26:36;;;;;;;8.27;5.95;;;;;;;;;;5029114;28;25084;-71
2023/08/29 07:29:03;;;;;;;7.25;5.57;;;;;;;;;;5018927;28;25105;-72
2023/08/29 07:31:29;;;;;;;11.27;6.35;;;;;;;;;;5027327;28;25055;-72
2023/08/29 07:33:55;;;;;;;14.18;6.22;;;;;;;;;;5029133;28;25099;-71
2023/08/29 07:36:21;;;;;;;8.80;6.32;;;;;;;;;;5026695;28;25146;-71
2023/08/29 07:38:48;;;;;;;11.18;6.93;;;;;;;;;;5030407;28;25062;-71
2023/08/29 07:41:14;;;;;;;10.23;6.40;;;;;;;;;;5022323;28;25148;-70
2023/08/29 07:43:40;;;;;;;8.85;6.15;;;;;;;;;;5022517;28;25160;-70
2023/08/29 07:46:08;;;;;;;14.20;6.40;;;;;;;;;;5018202;28;25049;-71
2023/08/29 07:48:34;;;;;;;8.73;6.38;;;;;;;;;;5028528;28;25111;-71
2023/08/29 07:51:00;;;;;;;10.60;5.85;;;;;;;;;;5024983;28;25096;-72
2023/08/29 07:53:27;;;;;;;10.45;5.57;;;;;;;;;;5023901;28;25057;-73
2023/08/29 07:55:53;;;;;;;11.73;5.75;;;;;;;;;;5035346;28;25053;-70
2023/08/29 07:58:19;;;;;;;5.18;4.25;;;;;;;;;;5021682;28;25122;-72
2023/08/29 08:00:45;;;;;;;8.18;5.22;;;;;;;;;;5033310;28;25054;-72
2023/08/29 08:03:11;;;;;;;13.43;5.75;;;;;;;;;;5036719;28;25041;-71
2023/08/29 08:05:37;;;;;;;11.30;6.05;;;;;;;;;;5028631;28;25057;-70
2023/08/29 08:08:04;;;;;;;12.90;4.82;;;;;;;;;;5028350;28;25102;-72
2023/08/29 08:10:30;;;;;;;5.43;4.15;;;;;;;;;;5029666;28;25079;-72
2023/08/29 08:12:56;;;;;;;6.45;4.45;;;;;;;;;;5031770;28;25084;-71
2023/08/29 08:15:22;;;;;;;6.68;4.35;;;;;;;;;;5028230;28;25057;-70
2023/08/29 08:17:49;;;;;;;5.85;4.32;;;;;;;;;;5029143;28;25084;-71
2023/08/29 08:20:15;;;;;;;6.20;4.43;;;;;;;;;;5033133;28;25109;-71
2023/08/29 08:22:42;;;;;;;7.05;4.07;;;;;;;;;;5033175;28;25148;-71
2023/08/29 08:25:09;;;;;;;4.93;2.72;;;;;;;;;;5031581;28;25091;-70
2023/08/29 08:27:36;;;;;;;5.03;3.45;;;;;;;;;;5033350;28;25094;-71
2023/08/29 08:30:05;;;;;;;5.63;3.00;;;;;;;;;;5033433;28;25074;-71
2023/08/29 08:32:31;;;;;;;4.05;2.80;;;;;;;;;;5024323;28;25058;-70
2023/08/29 08:34:57;;;;;;;4.03;2.58;;;;;;;;;;5028936;28;25121;-71
2023/08/29 08:37:23;;;;;;;3.35;2.58;;;;;;;;;;5022409;28;25092;-70
2023/08/29 08:39:49;;;;;;;6.90;3.03;;;;;;;;;;5023561;28;25135;-70
2023/08/29 08:42:16;;;;;;;4.13;2.55;;;;;;;;;;5031259;28;25068;-71
2023/08/29 08:44:42;;;;;;;3.65;2.22;;;;;;;;;;5028501;28;25146;-72
2023/08/29 08:47:09;;;;;;;3.13;2.08;;;;;;;;;;5025216;28;25131;-71
2023/08/29 08:49:35;;;;;;;2.42;1.80;;;;;;;;;;5034570;28;25118;-73
2023/08/29 08:52:01;;;;;;;2.40;1.60;;;;;;;;;;5021584;28;25108;-70
2023/08/29 08:54:27;;;;;;;3.50;1.88;;;;;;;;;;5037575;28;25047;-72
2023/08/29 08:56:57;;;;;;;2.88;2.63;;;;;;;;;;5031702;28;25045;-71
2023/08/29 08:59:24;;;;;;;7.82;2.30;;;;;;;;;;5029398;28;25097;-72
2023/08/29 09:01:50;;;;;;;4.22;3.20;;;;;;;;;;5017747;28;25102;-71
2023/08/29 09:04:16;;;;;;;5.75;3.47;;;;;;;;;;5021710;28;24952;-72
2023/08/29 09:06:42;;;;;;;5.43;3.85;;;;;;;;;;5017929;28;25140;-71
2023/08/29 09:09:23;;;;;;;5.85;3.35;;;;;;;;;;5027703;28;25075;-71
2023/08/29 09:11:56;;;;;;;4.25;2.95;;;;;;;;;;5019159;28;25078;-71
2023/08/29 09:14:22;;;;;;;5.93;3.20;;;;;;;;;;5029799;28;25053;-72
2023/08/29 09:16:53;;;;;;;3.08;2.83;;;;;;;;;;5030521;28;25074;-70
2023/08/29 09:19:20;;;;;;;4.28;2.33;;;;;;;;;;5025123;28;25087;-71
2023/08/29 09:21:45;;;;;;;3.45;2.78;;;;;;;;;;5023846;28;25130;-72
2023/08/29 09:24:15;;;;;;;6.68;2.80;;;;;;;;;;5015426;28;25069;-72
2023/08/29 09:26:41;;;;;;;4.50;2.72;;;;;;;;;;5008245;28;25069;-71
2023/08/29 09:29:17;;;;;;;2.67;2.38;;;;;;;;;;5028209;28;25151;-71
2023/08/29 09:31:43;;;;;;;6.85;2.47;;;;;;;;;;5018162;28;25076;-71
2023/08/29 09:34:10;;;;;;;2.58;1.90;;;;;;;;;;5014454;28;25089;-71
2023/08/29 09:36:36;;;;;;;3.28;1.58;;;;;;;;;;5015031;28;25104;-70
2023/08/29 09:39:02;;;;;;;3.95;2.25;;;;;;;;;;5021983;28;25077;-71
2023/08/29 09:41:28;;;;;;;2.03;1.30;;;;;;;;;;5029493;28;25063;-70
2023/08/29 09:43:54;;;;;;;3.08;1.30;;;;;;;;;;5021985;28;25056;-71
2023/08/29 09:46:21;;;;;;;1.98;1.88;;;;;;;;;;5017283;28;25074;-72
2023/08/29 09:48:55;;;;;;;1.50;1.40;;;;;;;;;;5019024;28;25059;-70
2023/08/29 09:51:21;;;;;;;4.53;1.50;;;;;;;;;;5018327;28;25073;-70
2023/08/29 09:53:48;;;;;;;4.70;1.48;;;;;;;;;;5026031;28;25100;-71
2023/08/29 09:56:14;;;;;;;2.50;1.80;;;;;;;;;;5021508;28;25126;-70
2023/08/29 09:58:41;;;;;;;2.85;2.00;;;;;;;;;;5016198;28;25143;-71
2023/08/29 10:01:09;;;;;;;4.47;1.80;;;;;;;;;;5017305;28;25147;-70
2023/08/29 10:03:35;;;;;;;1.60;1.50;;;;;;;;;;5021117;28;25105;-70
2023/08/29 10:06:02;;;;;;;3.42;2.60;;;;;;;;;;5021203;28;25059;-71
2023/08/29 10:08:42;;;;;;;2.25;2.10;;;;;;;;;;5021102;28;25079;-72
2023/08/29 10:11:08;;;;;;;4.25;2.30;;;;;;;;;;5023401;28;25072;-71
2023/08/29 10:13:37;;;;;;;3.22;2.85;;;;;;;;;;5024873;28;25126;-70
2023/08/29 10:16:04;;;;;;;3.00;2.70;;;;;;;;;;5018690;28;25040;-69
2023/08/29 10:18:30;;;;;;;5.60;3.17;;;;;;;;;;5023062;28;25111;-71
2023/08/29 10:20:56;;;;;;;4.70;3.13;;;;;;;;;;5018808;28;25128;-70
2023/08/29 10:23:23;;;;;;;3.70;3.15;;;;;;;;;;5022067;28;25137;-71
2023/08/29 10:25:49;;;;;;;3.95;2.58;;;;;;;;;;5027744;28;25082;-71
2023/08/29 10:28:16;;;;;;;3.03;2.38;;;;;;;;;;5030093;28;25063;-70
2023/08/29 10:30:45;;;;;;;3.35;2.20;;;;;;;;;;5040043;28;25082;-70
2023/08/29 10:33:12;;;;;;;3.08;2.55;;;;;;;;;;5026680;28;25071;-71
2023/08/29 10:35:38;;;;;;;5.75;2.70;;;;;;;;;;5033333;28;25123;-71
2023/08/29 10:38:08;;;;;;;3.15;2.00;;;;;;;;;;5037988;28;25076;-71
2023/08/29 10:40:37;;;;;;;2.83;2.08;;;;;;;;;;5026386;28;25068;-72
2023/08/29 10:43:03;;;;;;;3.28;2.20;;;;;;;;;;5045886;28;25108;-70
2023/08/29 10:45:48;;;;;;;3.83;1.77;;;;;;;;;;5038730;28;25093;-71
2023/08/29 10:48:32;;;;;;;1.63;1.52;;;;;;;;;;5025697;28;25106;-71
2023/08/29 10:51:09;;;;;;;1.30;1.20;;;;;;;;;;5022854;28;25075;-70
2023/08/29 10:53:47;;;;;;;1.75;1.55;;;;;;;;;;5020509;28;25090;-70
2023/08/29 10:56:14;;;;;;;4.15;1.80;;;;;;;;;;5031801;28;25058;-71
2023/08/29 10:58:44;;;;;;;2.90;1.80;;;;;;;;;;5020457;28;25086;-71
2023/08/29 11:01:28;;;;;;;2.83;2.00;;;;;;;;;;5023764;28;25072;-70
2023/08/29 11:03:57;;;;;;;1.95;1.73;;;;;;;;;;5033803;28;25175;-71
2023/08/29 11:06:24;;;;;;;4.82;3.50;;;;;;;;;;5023792;28;25145;-71
2023/08/29 11:08:50;;;;;;;3.65;3.28;;;;;;;;;;5023471;28;25068;-72
2023/08/29 11:11:20;;;;;;;3.33;2.63;;;;;;;;;;5024169;28;25078;-71
2023/08/29 11:13:59;;;;;;;4.25;3.05;;;;;;;;;;5022023;28;25067;-71
2023/08/29 11:16:28;;;;;;;4.25;3.45;;;;;;;;;;5026733;28;25069;-69
2023/08/29 11:19:05;;;;;;;5.75;4.10;;;;;;;;;;5032357;28;25059;-71
2023/08/29 11:21:31;;;;;;;6.60;3.53;;;;;;;;;;5031505;28;25099;-70
2023/08/29 11:23:58;;;;;;;5.53;1.75;;;;;;;;;;5022273;28;25143;-72
2023/08/29 11:26:24;;;;;;;1.27;0.90;;;;;;;;;;5025250;28;25131;-70
2023/08/29 11:28:51;;;;;;;2.80;1.20;;;;;;;;;;5023602;28;25065;-71
2023/08/29 11:31:20;;;;;;;1.52;1.25;;;;;;;;;;5022888;28;25062;-71
2023/08/29 11:33:46;;;;;;;1.90;0.95;;;;;;;;;;5025366;28;25106;-71
2023/08/29 11:36:13;;;;;;;1.38;0.60;;;;;;;;;;5027571;28;25117;-70
2023/08/29 11:38:39;;;;;;;2.97;1.60;;;;;;;;;;5023328;28;25078;-69
2023/08/29 11:41:06;;;;;;;1.40;1.27;;;;;;;;;;5028754;28;25090;-70
2023/08/29 11:43:33;;;;;;;2.75;1.63;;;;;;;;;;5036292;28;25064;-70
2023/08/29 11:45:59;;;;;;;1.50;1.40;;;;;;;;;;5040983;28;25137;-70
2023/08/29 11:48:29;;;;;;;1.70;1.40;;;;;;;;;;5028364;28;25118;-70
2023/08/29 11:51:05;;;;;;;2.03;1.30;;;;;;;;;;5026328;28;25065;-70
2023/08/29 11:53:32;;;;;;;2.65;1.40;;;;;;;;;;5031646;28;25059;-70
2023/08/29 11:55:59;;;;;;;2.08;1.50;;;;;;;;;;5028711;28;25135;-71
2023/08/29 11:58:28;;;;;;;2.55;1.20;;;;;;;;;;5027568;28;25081;-71
2023/08/29 12:00:55;;;;;;;1.80;1.15;;;;;;;;;;5029930;28;25060;-71
2023/08/29 12:03:22;;;;;;;1.80;1.60;;;;;;;;;;5023741;28;25131;-71
2023/08/29 12:05:48;;;;;;;2.08;1.42;;;;;;;;;;5027938;28;25088;-70
2023/08/29 12:08:15;;;;;;;3.13;1.58;;;;;;;;;;5028307;28;25084;-72
2023/08/29 12:10:51;;;;;;;2.85;1.55;;;;;;;;;;5039739;28;25052;-72
2023/08/29 12:13:17;;;;;;;4.03;1.92;;;;;;;;;;5019762;28;25073;-71
2023/08/29 12:15:43;;;;;;;2.70;1.85;;;;;;;;;;5034305;28;25062;-71
2023/08/29 12:18:19;;;;;;;4.32;2.10;;;;;;;;;;5023154;28;25096;-72
2023/08/29 12:20:45;;;;;;;4.03;1.80;;;;;;;;;;5026181;28;25063;-71
2023/08/29 12:23:11;;;;;;;3.55;1.60;;;;;;;;;;5030051;28;25133;-71
2023/08/29 12:25:37;;;;;;;3.28;1.95;;;;;;;;;;5038788;28;25111;-70
2023/08/29 12:28:04;;;;;;;3.38;1.50;;;;;;;;;;5029320;28;25055;-70
2023/08/29 12:30:30;;;;;;;4.22;1.67;;;;;;;;;;5024524;28;25062;-70
2023/08/29 12:32:56;;;;;;;2.05;1.65;;;;;;;;;;5037299;28;25060;-71
2023/08/29 12:35:22;;;;;;;3.15;1.50;;;;;;;;;;5035325;28;25081;-71
2023/08/29 12:37:48;;;;;;;6.72;1.77;;;;;;;;;;5036578;28;25049;-73
2023/08/29 12:40:15;;;;;;;4.85;1.58;;;;;;;;;;5028897;28;25096;-73
2023/08/29 12:42:43;;;;;;;3.17;1.70;;;;;;;;;;5020193;28;25078;-71
2023/08/29 12:45:09;;;;;;;5.50;1.80;;;;;;;;;;5029820;28;25079;-70
2023/08/29 12:47:37;;;;;;;5.75;1.60;;;;;;;;;;5025616;28;25062;-70
2023/08/29 12:50:03;;;;;;;2.83;1.40;;;;;;;;;;5029208;28;25073;-70
2023/08/29 12:52:29;;;;;;;2.88;1.45;;;;;;;;;;5025694;28;25077;-71
2023/08/29 12:54:55;;;;;;;2.78;1.60;;;;;;;;;;5029805;28;25080;-71
2023/08/29 12:57:21;;;;;;;3.75;2.70;;;;;;;;;;5027732;28;25126;-71
2023/08/29 12:59:47;;;;;;;5.72;2.28;;;;;;;;;;5029297;28;25045;-70
2023/08/29 13:02:13;;;;;;;5.45;1.75;;;;;;;;;;5028082;28;25084;-70
2023/08/29 13:04:39;;;;;;;2.92;1.98;;;;;;;;;;5024579;28;25087;-73
2023/08/29 13:07:05;;;;;;;2.85;1.95;;;;;;;;;;5020895;28;25080;-69
2023/08/29 13:09:31;;;;;;;3.55;1.85;;;;;;;;;;5026931;28;25174;-70
2023/08/29 13:11:57;;;;;;;2.25;1.58;;;;;;;;;;5032944;28;25072;-70
2023/08/29 13:14:23;;;;;;;5.55;2.35;;;;;;;;;;5049157;28;25103;-72
2023/08/29 13:16:49;;;;;;;5.72;2.08;;;;;;;;;;5046468;28;25080;-71
2023/08/29 13:19:15;;;;;;;5.15;1.58;;;;;;;;;;5035331;28;25106;-70
2023/08/29 13:21:41;;;;;;;4.53;1.85;;;;;;;;;;5028048;28;25070;-72
2023/08/29 13:24:07;;;;;;;4.82;2.40;;;;;;;;;;5035828;28;25074;-72
2023/08/29 13:26:34;;;;;;;2.22;1.60;;;;;;;;;;5050147;28;25087;-70
2023/08/29 13:29:01;;;;;;;4.75;1.90;;;;;;;;;;5030531;28;25139;-72
2023/08/29 13:31:26;;;;;;;3.20;1.83;;;;;;;;;;5032653;28;25121;-72
2023/08/29 13:33:55;;;;;;;3.85;1.88;;;;;;;;;;5028550;28;25057;-72
2023/08/29 13:36:21;;;;;;;4.90;1.77;;;;;;;;;;5024240;28;25055;-71
2023/08/29 13:38:47;;;;;;;4.28;2.30;;;;;;;;;;5027810;28;25097;-70
2023/08/29 13:41:13;;;;;;;3.38;1.42;;;;;;;;;;5035548;28;25070;-71
2023/08/29 13:43:39;;;;;;;5.68;1.90;;;;;;;;;;5029260;28;25068;-70
2023/08/29 13:46:05;;;;;;;3.20;1.90;;;;;;;;;;5026566;28;25114;-71
2023/08/29 13:48:31;;;;;;;6.18;1.88;;;;;;;;;;5032705;28;25074;-70
2023/08/29 13:50:58;;;;;;;8.13;2.08;;;;;;;;;;5027253;28;25147;-71
2023/08/29 13:53:24;;;;;;;4.93;2.17;;;;;;;;;;5022882;28;25058;-70
2023/08/29 13:55:50;;;;;;;5.07;1.98;;;;;;;;;;5039941;28;25112;-71
2023/08/29 13:58:16;;;;;;;4.43;1.70;;;;;;;;;;5029640;28;25166;-71
2023/08/29 14:00:42;;;;;;;5.32;1.65;;;;;;;;;;5019335;28;25108;-71
2023/08/29 14:03:09;;;;;;;3.38;1.73;;;;;;;;;;5021282;28;25111;-70
2023/08/29 14:05:35;;;;;;;5.70;1.58;;;;;;;;;;5017599;28;25068;-71
2023/08/29 14:08:01;;;;;;;2.50;1.48;;;;;;;;;;5019954;28;25049;-71
2023/08/29 14:10:27;;;;;;;2.42;1.83;;;;;;;;;;5028715;28;25105;-71
2023/08/29 14:12:53;;;;;;;3.95;1.27;;;;;;;;;;5020850;28;25058;-70
2023/08/29 14:15:19;;;;;;;2.95;2.08;;;;;;;;;;5020154;28;25048;-71
2023/08/29 14:17:45;;;;;;;4.15;1.50;;;;;;;;;;5030009;28;25071;-70
2023/08/29 14:20:11;;;;;;;2.42;1.63;;;;;;;;;;5021226;28;25086;-71
2023/08/29 14:22:37;;;;;;;3.92;1.77;;;;;;;;;;5028684;28;25073;-70
2023/08/29 14:25:03;;;;;;;2.70;1.55;;;;;;;;;;5013564;28;25062;-70
2023/08/29 14:27:30;;;;;;;4.10;2.30;;;;;;;;;;5028071;28;25067;-71
2023/08/29 14:29:56;;;;;;;3.10;1.73;;;;;;;;;;5031020;28;25076;-71
2023/08/29 14:32:22;;;;;;;3.35;1.40;;;;;;;;;;5022125;28;25065;-70
2023/08/29 14:34:48;;;;;;;3.33;1.70;;;;;;;;;;5022863;28;25143;-71
2023/08/29 14:37:13;;;;;;;3.63;1.80;;;;;;;;;;5020086;28;25069;-71
2023/08/29 14:39:40;;;;;;;2.03;1.38;;;;;;;;;;5021695;28;25047;-71